sensor_id;sensor_type;location;lat;lon;timestamp;temperature;humidity
6609;DHT22;61468;48.79282455;9.06262200;2022-07-10T00:01:27;23.60;99.90
6609;DHT22;61468;48.79282455;9.06262200;2022-07-10T00:04:11;23.60;99.90
6609;DHT22;61468;48.79282455;9.06262200;2022-07-10T00:06:55;23.60;99.90
6609;DHT22;61468;48.79282455;9.06262200;2022-07-10T00:09:41;23.60;99.90
6609;DHT22;61468;48.79282455;9.06262200;2022-07-10T00:12:26;23.60;99.90
6609;DHT22;61468;48.79282455;9.06262200;2022-07-10T00:15:11;23.60;99.90
6609;DHT22;61468;48.79282455;9.06262200;2022-07-10T00:17:55;23.60;99.90
6609;DHT22;61468;48.79282455;9.06262200;2022-07-10T00:20:39;23.70;99.90
6609;DHT22;61468;48.79282455;9.06262200;2022-07-10T00:23:23;23.60;99.90
6609;DHT22;61468;48.79282455;9.06262200;2022-07-10T00:26:08;23.60;99.90
6609;DHT22;61468;48.79282455;9.06262200;2022-07-10T00:28:52;23.60;99.90
6609;DHT22;61468;48.79282455;9.06262200;2022-07-10T00:31:37;23.60;99.90
6609;DHT22;61468;48.79282455;9.06262200;2022-07-10T00:34:21;23.60;99.90
6609;DHT22;61468;48.79282455;9.06262200;2022-07-10T00:37:05;23.60;99.90
6609;DHT22;61468;48.79282455;9.06262200;2022-07-10T00:39:49;23.60;99.90
6609;DHT22;61468;48.79282455;9.06262200;2022-07-10T00:42:33;23.60;99.90
6609;DHT22;61468;48.79282455;9.06262200;2022-07-10T00:45:17;23.60;99.90
6609;DHT22;61468;48.79282455;9.06262200;2022-07-10T00:48:01;23.60;99.90
6609;DHT22;61468;48.79282455;9.06262200;2022-07-10T00:50:45;23.60;99.90
6609;DHT22;61468;48.79282455;9.06262200;2022-07-10T00:53:30;23.60;99.90
6609;DHT22;61468;48.79282455;9.06262200;2022-07-10T00:56:19;23.60;99.90
6609;DHT22;61468;48.79282455;9.06262200;2022-07-10T00:59:05;23.60;99.90
6609;DHT22;61468;48.79282455;9.06262200;2022-07-10T01:01:52;23.60;99.90
6609;DHT22;61468;48.79282455;9.06262200;2022-07-10T01:04:37;23.60;99.90
6609;DHT22;61468;48.79282455;9.06262200;2022-07-10T01:07:21;23.60;99.90
6609;DHT22;61468;48.79282455;9.06262200;2022-07-10T01:10:06;23.60;99.90
6609;DHT22;61468;48.79282455;9.06262200;2022-07-10T01:12:50;23.60;99.90
6609;DHT22;61468;48.79282455;9.06262200;2022-07-10T01:15:35;23.60;99.90
6609;DHT22;61468;48.79282455;9.06262200;2022-07-10T01:18:19;23.60;99.90
6609;DHT22;61468;48.79282455;9.06262200;2022-07-10T01:21:04;23.60;99.90
6609;DHT22;61468;48.79282455;9.06262200;2022-07-10T01:23:48;23.50;99.90
6609;DHT22;61468;48.79282455;9.06262200;2022-07-10T01:26:32;23.50;99.90
6609;DHT22;61468;48.79282455;9.06262200;2022-07-10T01:29:16;23.50;99.90
6609;DHT22;61468;48.79282455;9.06262200;2022-07-10T01:32:01;23.50;99.90
6609;DHT22;61468;48.79282455;9.06262200;2022-07-10T01:34:45;23.50;99.90
6609;DHT22;61468;48.79282455;9.06262200;2022-07-10T01:37:30;23.50;99.90
6609;DHT22;61468;48.79282455;9.06262200;2022-07-10T01:40:14;23.50;99.90
6609;DHT22;61468;48.79282455;9.06262200;2022-07-10T01:42:58;23.50;99.90
6609;DHT22;61468;48.79282455;9.06262200;2022-07-10T01:45:43;23.50;99.90
6609;DHT22;61468;48.79282455;9.06262200;2022-07-10T01:48:28;23.50;99.90
6609;DHT22;61468;48.79282455;9.06262200;2022-07-10T01:51:13;23.50;99.90
6609;DHT22;61468;48.79282455;9.06262200;2022-07-10T01:53:57;23.50;99.90
6609;DHT22;61468;48.79282455;9.06262200;2022-07-10T01:56:41;23.50;99.90
6609;DHT22;61468;48.79282455;9.06262200;2022-07-10T01:59:25;23.50;99.90
6609;DHT22;61468;48.79282455;9.06262200;2022-07-10T02:02:09;23.50;99.90
6609;DHT22;61468;48.79282455;9.06262200;2022-07-10T02:04:53;23.50;99.90
6609;DHT22;61468;48.79282455;9.06262200;2022-07-10T02:07:37;23.50;99.90
6609;DHT22;61468;48.79282455;9.06262200;2022-07-10T02:10:21;23.50;99.90
6609;DHT22;61468;48.79282455;9.06262200;2022-07-10T02:13:05;23.50;99.90
6609;DHT22;61468;48.79282455;9.06262200;2022-07-10T02:15:50;23.50;99.90
6609;DHT22;61468;48.79282455;9.06262200;2022-07-10T02:18:34;23.50;99.90
6609;DHT22;61468;48.79282455;9.06262200;2022-07-10T02:21:18;23.50;99.90
6609;DHT22;61468;48.79282455;9.06262200;2022-07-10T02:24:02;23.50;99.90
6609;DHT22;61468;48.79282455;9.06262200;2022-07-10T02:26:47;23.50;99.90
6609;DHT22;61468;48.79282455;9.06262200;2022-07-10T02:29:31;23.50;99.90
6609;DHT22;61468;48.79282455;9.06262200;2022-07-10T02:32:15;23.40;99.90
6609;DHT22;61468;48.79282455;9.06262200;2022-07-10T02:34:59;23.40;99.90
6609;DHT22;61468;48.79282455;9.06262200;2022-07-10T02:37:43;23.40;99.90
6609;DHT22;61468;48.79282455;9.06262200;2022-07-10T02:40:26;23.40;99.90
6609;DHT22;61468;48.79282455;9.06262200;2022-07-10T02:43:11;23.40;99.90
6609;DHT22;61468;48.79282455;9.06262200;2022-07-10T02:45:55;23.50;99.90
6609;DHT22;61468;48.79282455;9.06262200;2022-07-10T02:48:39;23.40;99.90
6609;DHT22;61468;48.79282455;9.06262200;2022-07-10T02:51:23;23.40;99.90
6609;DHT22;61468;48.79282455;9.06262200;2022-07-10T02:54:07;23.40;99.90
6609;DHT22;61468;48.79282455;9.06262200;2022-07-10T02:56:51;23.40;99.90
6609;DHT22;61468;48.79282455;9.06262200;2022-07-10T02:59:35;23.40;99.90
6609;DHT22;61468;48.79282455;9.06262200;2022-07-10T03:02:20;23.40;99.90
6609;DHT22;61468;48.79282455;9.06262200;2022-07-10T03:05:04;23.40;99.90
6609;DHT22;61468;48.79282455;9.06262200;2022-07-10T03:07:48;23.40;99.90
6609;DHT22;61468;48.79282455;9.06262200;2022-07-10T03:10:32;23.40;99.90
6609;DHT22;61468;48.79282455;9.06262200;2022-07-10T03:13:16;23.40;99.90
6609;DHT22;61468;48.79282455;9.06262200;2022-07-10T03:16:00;23.40;99.90
6609;DHT22;61468;48.79282455;9.06262200;2022-07-10T03:18:44;23.40;99.90
6609;DHT22;61468;48.79282455;9.06262200;2022-07-10T03:21:29;23.30;99.90
6609;DHT22;61468;48.79282455;9.06262200;2022-07-10T03:24:16;23.30;99.90
6609;DHT22;61468;48.79282455;9.06262200;2022-07-10T03:27:00;23.30;99.90
6609;DHT22;61468;48.79282455;9.06262200;2022-07-10T03:29:44;23.30;99.90
6609;DHT22;61468;48.79282455;9.06262200;2022-07-10T03:32:30;23.30;99.90
6609;DHT22;61468;48.79282455;9.06262200;2022-07-10T03:35:14;23.30;99.90
6609;DHT22;61468;48.79282455;9.06262200;2022-07-10T03:37:58;23.30;99.90
6609;DHT22;61468;48.79282455;9.06262200;2022-07-10T03:40:42;23.30;99.90
6609;DHT22;61468;48.79282455;9.06262200;2022-07-10T03:43:26;23.30;99.90
6609;DHT22;61468;48.79282455;9.06262200;2022-07-10T03:46:10;23.40;99.90
6609;DHT22;61468;48.79282455;9.06262200;2022-07-10T03:48:55;23.30;99.90
6609;DHT22;61468;48.79282455;9.06262200;2022-07-10T03:51:39;23.30;99.90
6609;DHT22;61468;48.79282455;9.06262200;2022-07-10T03:54:23;23.30;99.90
6609;DHT22;61468;48.79282455;9.06262200;2022-07-10T03:57:07;23.30;99.90
6609;DHT22;61468;48.79282455;9.06262200;2022-07-10T04:00:10;23.30;99.90
6609;DHT22;61468;48.79282455;9.06262200;2022-07-10T04:02:56;23.30;99.90
6609;DHT22;61468;48.79282455;9.06262200;2022-07-10T04:05:40;23.30;99.90
6609;DHT22;61468;48.79282455;9.06262200;2022-07-10T04:08:24;23.30;99.90
6609;DHT22;61468;48.79282455;9.06262200;2022-07-10T04:11:08;23.30;99.90
6609;DHT22;61468;48.79282455;9.06262200;2022-07-10T04:13:52;23.30;99.90
6609;DHT22;61468;48.79282455;9.06262200;2022-07-10T04:16:37;23.30;99.90
6609;DHT22;61468;48.79282455;9.06262200;2022-07-10T04:19:21;23.30;99.90
6609;DHT22;61468;48.79282455;9.06262200;2022-07-10T04:22:05;23.30;99.90
6609;DHT22;61468;48.79282455;9.06262200;2022-07-10T04:24:50;23.30;99.90
6609;DHT22;61468;48.79282455;9.06262200;2022-07-10T04:27:35;23.30;99.90
6609;DHT22;61468;48.79282455;9.06262200;2022-07-10T04:30:19;23.20;99.90
6609;DHT22;61468;48.79282455;9.06262200;2022-07-10T04:33:03;23.30;99.90
6609;DHT22;61468;48.79282455;9.06262200;2022-07-10T04:35:47;23.20;99.90
6609;DHT22;61468;48.79282455;9.06262200;2022-07-10T04:38:31;23.20;99.90
6609;DHT22;61468;48.79282455;9.06262200;2022-07-10T04:41:15;23.20;99.90
6609;DHT22;61468;48.79282455;9.06262200;2022-07-10T04:43:59;23.20;99.90
6609;DHT22;61468;48.79282455;9.06262200;2022-07-10T04:46:43;23.30;99.90
6609;DHT22;61468;48.79282455;9.06262200;2022-07-10T04:49:27;23.20;99.90
6609;DHT22;61468;48.79282455;9.06262200;2022-07-10T04:52:12;23.20;99.90
6609;DHT22;61468;48.79282455;9.06262200;2022-07-10T04:54:56;23.20;99.90
6609;DHT22;61468;48.79282455;9.06262200;2022-07-10T04:57:40;23.20;99.90
6609;DHT22;61468;48.79282455;9.06262200;2022-07-10T05:00:27;23.20;99.90
6609;DHT22;61468;48.79282455;9.06262200;2022-07-10T05:03:12;23.20;99.90
6609;DHT22;61468;48.79282455;9.06262200;2022-07-10T05:05:56;23.20;99.90
6609;DHT22;61468;48.79282455;9.06262200;2022-07-10T05:08:40;23.20;99.90
6609;DHT22;61468;48.79282455;9.06262200;2022-07-10T05:11:24;23.20;99.90
6609;DHT22;61468;48.79282455;9.06262200;2022-07-10T05:14:09;23.20;99.90
6609;DHT22;61468;48.79282455;9.06262200;2022-07-10T05:16:53;23.20;99.90
6609;DHT22;61468;48.79282455;9.06262200;2022-07-10T05:19:37;23.20;99.90
6609;DHT22;61468;48.79282455;9.06262200;2022-07-10T05:22:22;23.20;99.90
6609;DHT22;61468;48.79282455;9.06262200;2022-07-10T05:25:06;23.20;99.90
6609;DHT22;61468;48.79282455;9.06262200;2022-07-10T05:27:51;23.20;99.90
6609;DHT22;61468;48.79282455;9.06262200;2022-07-10T05:30:35;23.20;99.90
6609;DHT22;61468;48.79282455;9.06262200;2022-07-10T05:33:19;23.20;99.90
6609;DHT22;61468;48.79282455;9.06262200;2022-07-10T05:36:03;23.20;99.90
6609;DHT22;61468;48.79282455;9.06262200;2022-07-10T05:38:47;23.20;99.90
6609;DHT22;61468;48.79282455;9.06262200;2022-07-10T05:41:31;23.20;99.90
6609;DHT22;61468;48.79282455;9.06262200;2022-07-10T05:44:16;23.20;99.90
6609;DHT22;61468;48.79282455;9.06262200;2022-07-10T05:47:03;23.20;99.90
6609;DHT22;61468;48.79282455;9.06262200;2022-07-10T05:49:47;23.20;99.90
6609;DHT22;61468;48.79282455;9.06262200;2022-07-10T05:52:32;23.20;99.90
6609;DHT22;61468;48.79282455;9.06262200;2022-07-10T05:55:16;23.20;99.90
6609;DHT22;61468;48.79282455;9.06262200;2022-07-10T05:58:00;23.20;99.90
6609;DHT22;61468;48.79282455;9.06262200;2022-07-10T06:00:44;23.20;99.90
6609;DHT22;61468;48.79282455;9.06262200;2022-07-10T06:03:29;23.20;99.90
6609;DHT22;61468;48.79282455;9.06262200;2022-07-10T06:06:13;23.20;99.90
6609;DHT22;61468;48.79282455;9.06262200;2022-07-10T06:08:59;23.20;99.90
6609;DHT22;61468;48.79282455;9.06262200;2022-07-10T06:11:43;23.20;99.90
6609;DHT22;61468;48.79282455;9.06262200;2022-07-10T06:14:29;23.20;99.90
6609;DHT22;61468;48.79282455;9.06262200;2022-07-10T06:17:13;23.20;99.90
6609;DHT22;61468;48.79282455;9.06262200;2022-07-10T06:19:57;23.20;99.90
6609;DHT22;61468;48.79282455;9.06262200;2022-07-10T06:22:41;23.20;99.90
6609;DHT22;61468;48.79282455;9.06262200;2022-07-10T06:25:25;23.20;99.90
6609;DHT22;61468;48.79282455;9.06262200;2022-07-10T06:28:09;23.20;99.90
6609;DHT22;61468;48.79282455;9.06262200;2022-07-10T06:30:53;23.20;99.90
6609;DHT22;61468;48.79282455;9.06262200;2022-07-10T06:33:38;23.20;99.90
6609;DHT22;61468;48.79282455;9.06262200;2022-07-10T06:36:22;23.20;99.90
6609;DHT22;61468;48.79282455;9.06262200;2022-07-10T06:39:06;23.20;99.90
6609;DHT22;61468;48.79282455;9.06262200;2022-07-10T06:41:50;23.20;99.90
6609;DHT22;61468;48.79282455;9.06262200;2022-07-10T06:44:34;23.20;99.90
6609;DHT22;61468;48.79282455;9.06262200;2022-07-10T06:47:19;23.20;99.90
6609;DHT22;61468;48.79282455;9.06262200;2022-07-10T06:50:24;23.20;99.90
6609;DHT22;61468;48.79282455;9.06262200;2022-07-10T06:53:09;23.20;99.90
6609;DHT22;61468;48.79282455;9.06262200;2022-07-10T06:55:54;23.20;99.90
6609;DHT22;61468;48.79282455;9.06262200;2022-07-10T06:58:38;23.30;99.90
6609;DHT22;61468;48.79282455;9.06262200;2022-07-10T07:01:22;23.30;99.90
6609;DHT22;61468;48.79282455;9.06262200;2022-07-10T07:04:06;23.30;99.90
6609;DHT22;61468;48.79282455;9.06262200;2022-07-10T07:06:50;23.30;99.90
6609;DHT22;61468;48.79282455;9.06262200;2022-07-10T07:09:35;23.30;99.90
6609;DHT22;61468;48.79282455;9.06262200;2022-07-10T07:12:19;23.30;99.90
6609;DHT22;61468;48.79282455;9.06262200;2022-07-10T07:15:03;23.30;99.90
6609;DHT22;61468;48.79282455;9.06262200;2022-07-10T07:17:47;23.30;99.90
6609;DHT22;61468;48.79282455;9.06262200;2022-07-10T07:20:41;23.30;99.90
6609;DHT22;61468;48.79282455;9.06262200;2022-07-10T07:23:43;23.40;99.90
6609;DHT22;61468;48.79282455;9.06262200;2022-07-10T07:26:27;23.50;99.90
6609;DHT22;61468;48.79282455;9.06262200;2022-07-10T07:29:11;23.50;99.90
6609;DHT22;61468;48.79282455;9.06262200;2022-07-10T07:31:56;23.50;99.90
6609;DHT22;61468;48.79282455;9.06262200;2022-07-10T07:34:39;23.50;99.90
6609;DHT22;61468;48.79282455;9.06262200;2022-07-10T07:37:44;23.50;99.90
6609;DHT22;61468;48.79282455;9.06262200;2022-07-10T07:40:29;23.50;97.90
6609;DHT22;61468;48.79282455;9.06262200;2022-07-10T07:43:13;23.60;99.30
6609;DHT22;61468;48.79282455;9.06262200;2022-07-10T07:45:57;23.60;99.90
6609;DHT22;61468;48.79282455;9.06262200;2022-07-10T07:48:41;23.80;99.90
6609;DHT22;61468;48.79282455;9.06262200;2022-07-10T07:51:26;23.70;99.90
6609;DHT22;61468;48.79282455;9.06262200;2022-07-10T07:54:10;24.10;99.90
6609;DHT22;61468;48.79282455;9.06262200;2022-07-10T07:56:54;24.50;99.00
6609;DHT22;61468;48.79282455;9.06262200;2022-07-10T07:59:38;24.50;97.50
6609;DHT22;61468;48.79282455;9.06262200;2022-07-10T08:02:23;24.70;99.90
6609;DHT22;61468;48.79282455;9.06262200;2022-07-10T08:05:08;24.90;99.90
6609;DHT22;61468;48.79282455;9.06262200;2022-07-10T08:07:54;25.00;94.90
6609;DHT22;61468;48.79282455;9.06262200;2022-07-10T08:10:38;25.20;74.90
6609;DHT22;61468;48.79282455;9.06262200;2022-07-10T08:13:22;25.00;58.30
6609;DHT22;61468;48.79282455;9.06262200;2022-07-10T08:16:06;25.00;51.30
6609;DHT22;61468;48.79282455;9.06262200;2022-07-10T08:18:50;25.00;44.60
6609;DHT22;61468;48.79282455;9.06262200;2022-07-10T08:21:34;24.90;38.90
6609;DHT22;61468;48.79282455;9.06262200;2022-07-10T08:24:18;24.80;37.30
6609;DHT22;61468;48.79282455;9.06262200;2022-07-10T08:27:02;24.80;32.00
6609;DHT22;61468;48.79282455;9.06262200;2022-07-10T08:29:47;24.70;33.00
6609;DHT22;61468;48.79282455;9.06262200;2022-07-10T08:32:31;24.70;29.60
6609;DHT22;61468;48.79282455;9.06262200;2022-07-10T08:35:15;24.80;27.10
6609;DHT22;61468;48.79282455;9.06262200;2022-07-10T08:37:59;24.80;24.80
6609;DHT22;61468;48.79282455;9.06262200;2022-07-10T08:40:45;24.80;24.20
6609;DHT22;61468;48.79282455;9.06262200;2022-07-10T08:43:30;24.80;22.20
6609;DHT22;61468;48.79282455;9.06262200;2022-07-10T08:46:15;24.70;22.00
6609;DHT22;61468;48.79282455;9.06262200;2022-07-10T08:49:05;24.80;21.00
6609;DHT22;61468;48.79282455;9.06262200;2022-07-10T08:51:58;24.80;17.80
6609;DHT22;61468;48.79282455;9.06262200;2022-07-10T08:54:43;24.70;17.90
6609;DHT22;61468;48.79282455;9.06262200;2022-07-10T08:57:28;24.70;17.50
6609;DHT22;61468;48.79282455;9.06262200;2022-07-10T09:00:15;24.80;16.30
6609;DHT22;61468;48.79282455;9.06262200;2022-07-10T09:03:00;24.70;16.40
6609;DHT22;61468;48.79282455;9.06262200;2022-07-10T09:05:45;24.70;15.70
6609;DHT22;61468;48.79282455;9.06262200;2022-07-10T09:08:29;24.60;14.90
6609;DHT22;61468;48.79282455;9.06262200;2022-07-10T09:11:18;24.40;12.70
6609;DHT22;61468;48.79282455;9.06262200;2022-07-10T09:14:04;24.20;15.90
6609;DHT22;61468;48.79282455;9.06262200;2022-07-10T09:16:51;24.10;16.40
6609;DHT22;61468;48.79282455;9.06262200;2022-07-10T09:19:35;24.00;16.00
6609;DHT22;61468;48.79282455;9.06262200;2022-07-10T09:22:21;24.00;17.30
6609;DHT22;61468;48.79282455;9.06262200;2022-07-10T09:25:12;24.00;18.40
6609;DHT22;61468;48.79282455;9.06262200;2022-07-10T09:27:56;24.00;17.50
6609;DHT22;61468;48.79282455;9.06262200;2022-07-10T09:30:42;24.00;18.30
6609;DHT22;61468;48.79282455;9.06262200;2022-07-10T09:33:28;24.00;18.40
6609;DHT22;61468;48.79282455;9.06262200;2022-07-10T09:36:15;24.00;21.70
6609;DHT22;61468;48.79282455;9.06262200;2022-07-10T09:39:02;24.00;18.80
6609;DHT22;61468;48.79282455;9.06262200;2022-07-10T09:41:46;24.00;27.60
6609;DHT22;61468;48.79282455;9.06262200;2022-07-10T09:44:30;23.90;16.80
6609;DHT22;61468;48.79282455;9.06262200;2022-07-10T09:47:24;23.80;15.70
6609;DHT22;61468;48.79282455;9.06262200;2022-07-10T09:50:31;23.90;16.10
6609;DHT22;61468;48.79282455;9.06262200;2022-07-10T09:53:17;24.00;15.20
6609;DHT22;61468;48.79282455;9.06262200;2022-07-10T09:56:01;23.90;15.20
6609;DHT22;61468;48.79282455;9.06262200;2022-07-10T09:58:46;24.00;10.90
6609;DHT22;61468;48.79282455;9.06262200;2022-07-10T10:01:36;24.00;13.30
6609;DHT22;61468;48.79282455;9.06262200;2022-07-10T10:04:25;24.10;13.20
6609;DHT22;61468;48.79282455;9.06262200;2022-07-10T10:07:11;24.00;12.20
6609;DHT22;61468;48.79282455;9.06262200;2022-07-10T10:09:59;23.90;12.60
6609;DHT22;61468;48.79282455;9.06262200;2022-07-10T10:12:54;23.90;11.50
6609;DHT22;61468;48.79282455;9.06262200;2022-07-10T10:15:42;23.90;10.90
6609;DHT22;61468;48.79282455;9.06262200;2022-07-10T10:18:27;23.80;9.20
6609;DHT22;61468;48.79282455;9.06262200;2022-07-10T10:21:11;23.80;9.00
6609;DHT22;61468;48.79282455;9.06262200;2022-07-10T10:23:56;23.70;8.30
6609;DHT22;61468;48.79282455;9.06262200;2022-07-10T10:26:41;23.70;6.10
6609;DHT22;61468;48.79282455;9.06262200;2022-07-10T10:29:28;23.70;5.00
6609;DHT22;61468;48.79282455;9.06262200;2022-07-10T10:32:12;23.60;3.90
6609;DHT22;61468;48.79282455;9.06262200;2022-07-10T10:34:58;23.60;2.20
6609;DHT22;61468;48.79282455;9.06262200;2022-07-10T10:37:50;23.60;2.10
6609;DHT22;61468;48.79282455;9.06262200;2022-07-10T10:40:34;23.50;1.90
6609;DHT22;61468;48.79282455;9.06262200;2022-07-10T10:43:22;23.60;1.00
6609;DHT22;61468;48.79282455;9.06262200;2022-07-10T10:46:25;23.50;2.10
6609;DHT22;61468;48.79282455;9.06262200;2022-07-10T10:49:09;23.50;2.60
6609;DHT22;61468;48.79282455;9.06262200;2022-07-10T10:52:01;23.50;1.00
6609;DHT22;61468;48.79282455;9.06262200;2022-07-10T10:57:41;23.50;1.00
6609;DHT22;61468;48.79282455;9.06262200;2022-07-10T11:00:35;23.50;1.00
6609;DHT22;61468;48.79282455;9.06262200;2022-07-10T11:03:22;23.50;1.00
6609;DHT22;61468;48.79282455;9.06262200;2022-07-10T11:06:07;23.50;1.00
6609;DHT22;61468;48.79282455;9.06262200;2022-07-10T11:08:58;23.50;1.00
6609;DHT22;61468;48.79282455;9.06262200;2022-07-10T11:11:44;23.50;1.00
6609;DHT22;61468;48.79282455;9.06262200;2022-07-10T11:14:46;23.50;1.00
6609;DHT22;61468;48.79282455;9.06262200;2022-07-10T11:17:33;23.50;1.00
6609;DHT22;61468;48.79282455;9.06262200;2022-07-10T11:20:18;23.50;1.00
6609;DHT22;61468;48.79282455;9.06262200;2022-07-10T11:28:52;23.50;1.00
6609;DHT22;61468;48.79282455;9.06262200;2022-07-10T11:31:37;23.50;1.00
6609;DHT22;61468;48.79282455;9.06262200;2022-07-10T11:34:35;23.60;1.00
6609;DHT22;61468;48.79282455;9.06262200;2022-07-10T11:37:20;23.60;1.00
6609;DHT22;61468;48.79282455;9.06262200;2022-07-10T11:40:11;23.60;1.00
6609;DHT22;61468;48.79282455;9.06262200;2022-07-10T11:42:56;23.60;1.00
6609;DHT22;61468;48.79282455;9.06262200;2022-07-10T11:45:41;23.70;1.00
6609;DHT22;61468;48.79282455;9.06262200;2022-07-10T11:48:25;23.60;1.00
6609;DHT22;61468;48.79282455;9.06262200;2022-07-10T11:51:37;23.60;1.00
6609;DHT22;61468;48.79282455;9.06262200;2022-07-10T11:54:21;23.70;1.00
6609;DHT22;61468;48.79282455;9.06262200;2022-07-10T11:57:06;23.70;1.00
6609;DHT22;61468;48.79282455;9.06262200;2022-07-10T11:59:54;23.70;1.00
6609;DHT22;61468;48.79282455;9.06262200;2022-07-10T12:02:38;23.80;1.00
6609;DHT22;61468;48.79282455;9.06262200;2022-07-10T12:05:33;23.80;1.00
6609;DHT22;61468;48.79282455;9.06262200;2022-07-10T12:08:17;23.80;1.00
6609;DHT22;61468;48.79282455;9.06262200;2022-07-10T12:11:11;23.80;1.00
6609;DHT22;61468;48.79282455;9.06262200;2022-07-10T12:16:54;23.90;1.00
6609;DHT22;61468;48.79282455;9.06262200;2022-07-10T12:19:39;23.80;1.00
6609;DHT22;61468;48.79282455;9.06262200;2022-07-10T12:22:23;23.90;1.00
6609;DHT22;61468;48.79282455;9.06262200;2022-07-10T12:25:08;23.80;1.00
6609;DHT22;61468;48.79282455;9.06262200;2022-07-10T12:27:57;23.90;1.00
6609;DHT22;61468;48.79282455;9.06262200;2022-07-10T12:30:44;23.90;1.00
6609;DHT22;61468;48.79282455;9.06262200;2022-07-10T12:33:28;23.90;1.00
6609;DHT22;61468;48.79282455;9.06262200;2022-07-10T12:36:15;23.90;1.00
6609;DHT22;61468;48.79282455;9.06262200;2022-07-10T12:38:59;23.90;1.00
6609;DHT22;61468;48.79282455;9.06262200;2022-07-10T12:42:03;24.00;1.00
6609;DHT22;61468;48.79282455;9.06262200;2022-07-10T12:44:48;24.00;1.00
6609;DHT22;61468;48.79282455;9.06262200;2022-07-10T12:47:46;24.10;1.00
6609;DHT22;61468;48.79282455;9.06262200;2022-07-10T12:50:30;24.10;1.00
6609;DHT22;61468;48.79282455;9.06262200;2022-07-10T12:53:14;24.10;1.00
6609;DHT22;61468;48.79282455;9.06262200;2022-07-10T12:55:58;24.20;1.00
6609;DHT22;61468;48.79282455;9.06262200;2022-07-10T12:58:45;24.20;1.00
6609;DHT22;61468;48.79282455;9.06262200;2022-07-10T13:01:43;24.20;1.00
6609;DHT22;61468;48.79282455;9.06262200;2022-07-10T13:04:27;24.20;1.00
6609;DHT22;61468;48.79282455;9.06262200;2022-07-10T13:07:14;24.30;1.00
6609;DHT22;61468;48.79282455;9.06262200;2022-07-10T13:10:00;24.30;1.00
6609;DHT22;61468;48.79282455;9.06262200;2022-07-10T13:12:44;24.40;1.00
6609;DHT22;61468;48.79282455;9.06262200;2022-07-10T13:15:29;24.40;1.00
6609;DHT22;61468;48.79282455;9.06262200;2022-07-10T13:18:21;24.30;1.00
6609;DHT22;61468;48.79282455;9.06262200;2022-07-10T13:21:05;24.00;1.00
6609;DHT22;61468;48.79282455;9.06262200;2022-07-10T13:23:49;24.00;1.00
6609;DHT22;61468;48.79282455;9.06262200;2022-07-10T13:26:34;24.00;1.00
6609;DHT22;61468;48.79282455;9.06262200;2022-07-10T13:29:18;24.10;1.00
6609;DHT22;61468;48.79282455;9.06262200;2022-07-10T13:32:03;24.10;1.00
6609;DHT22;61468;48.79282455;9.06262200;2022-07-10T13:34:47;24.00;1.00
6609;DHT22;61468;48.79282455;9.06262200;2022-07-10T13:37:31;24.10;1.00
6609;DHT22;61468;48.79282455;9.06262200;2022-07-10T13:40:16;24.10;1.00
6609;DHT22;61468;48.79282455;9.06262200;2022-07-10T13:43:01;24.10;1.00
6609;DHT22;61468;48.79282455;9.06262200;2022-07-10T13:45:45;24.20;1.00
6609;DHT22;61468;48.79282455;9.06262200;2022-07-10T13:48:29;23.80;1.00
6609;DHT22;61468;48.79282455;9.06262200;2022-07-10T13:51:14;23.30;1.00
6609;DHT22;61468;48.79282455;9.06262200;2022-07-10T13:53:58;23.30;1.00
6609;DHT22;61468;48.79282455;9.06262200;2022-07-10T13:56:42;23.20;1.00
6609;DHT22;61468;48.79282455;9.06262200;2022-07-10T13:59:27;22.90;1.00
6609;DHT22;61468;48.79282455;9.06262200;2022-07-10T14:02:11;23.10;1.00
6609;DHT22;61468;48.79282455;9.06262200;2022-07-10T14:04:56;23.30;1.00
6609;DHT22;61468;48.79282455;9.06262200;2022-07-10T14:07:40;23.30;1.00
6609;DHT22;61468;48.79282455;9.06262200;2022-07-10T14:10:24;23.20;1.00
6609;DHT22;61468;48.79282455;9.06262200;2022-07-10T14:13:08;23.20;1.00
6609;DHT22;61468;48.79282455;9.06262200;2022-07-10T14:15:52;23.30;1.00
6609;DHT22;61468;48.79282455;9.06262200;2022-07-10T14:18:38;23.30;1.00
6609;DHT22;61468;48.79282455;9.06262200;2022-07-10T14:21:23;23.40;1.00
6609;DHT22;61468;48.79282455;9.06262200;2022-07-10T14:24:11;23.50;1.00
6609;DHT22;61468;48.79282455;9.06262200;2022-07-10T14:26:55;23.60;1.00
6609;DHT22;61468;48.79282455;9.06262200;2022-07-10T14:29:39;23.50;1.00
6609;DHT22;61468;48.79282455;9.06262200;2022-07-10T14:32:23;23.40;1.00
6609;DHT22;61468;48.79282455;9.06262200;2022-07-10T14:35:07;23.50;1.00
6609;DHT22;61468;48.79282455;9.06262200;2022-07-10T14:37:52;23.40;1.00
6609;DHT22;61468;48.79282455;9.06262200;2022-07-10T14:40:36;23.60;1.00
6609;DHT22;61468;48.79282455;9.06262200;2022-07-10T14:43:20;23.80;1.00
6609;DHT22;61468;48.79282455;9.06262200;2022-07-10T14:46:05;23.80;1.00
6609;DHT22;61468;48.79282455;9.06262200;2022-07-10T14:48:50;23.90;1.00
6609;DHT22;61468;48.79282455;9.06262200;2022-07-10T14:51:34;23.90;1.00
6609;DHT22;61468;48.79282455;9.06262200;2022-07-10T14:54:19;23.70;1.00
6609;DHT22;61468;48.79282455;9.06262200;2022-07-10T14:57:03;23.30;1.00
6609;DHT22;61468;48.79282455;9.06262200;2022-07-10T14:59:48;23.30;1.00
6609;DHT22;61468;48.79282455;9.06262200;2022-07-10T15:02:32;23.10;1.00
6609;DHT22;61468;48.79282455;9.06262200;2022-07-10T15:05:16;23.50;1.00
6609;DHT22;61468;48.79282455;9.06262200;2022-07-10T15:08:01;23.30;1.00
6609;DHT22;61468;48.79282455;9.06262200;2022-07-10T15:10:46;23.30;1.00
6609;DHT22;61468;48.79282455;9.06262200;2022-07-10T15:13:31;23.60;1.00
6609;DHT22;61468;48.79282455;9.06262200;2022-07-10T15:16:15;23.70;1.00
6609;DHT22;61468;48.79282455;9.06262200;2022-07-10T15:18:59;23.80;1.00
6609;DHT22;61468;48.79282455;9.06262200;2022-07-10T15:21:44;23.90;1.00
6609;DHT22;61468;48.79282455;9.06262200;2022-07-10T15:24:28;23.90;1.00
6609;DHT22;61468;48.79282455;9.06262200;2022-07-10T15:27:12;24.00;1.00
6609;DHT22;61468;48.79282455;9.06262200;2022-07-10T15:29:57;23.80;1.00